CAL527 RCTP-ZGSZ
Flight info
| Callsign | CAL527 |
|---|---|
| Flight time | N/A |
| Altitude | 36000 |
| Route | CHALI1B CHALI T3 MKG A1 ANPOG R200 OLDID/N0495F361 R200 LAPUG/K0917S1100 R200 OVGOT OVGOT3 |
| Aircraft | B77W/H-SDE1E2E3FGHIJ2J3J4J5M1RWXY/LB1D1 |
Departure
| Time | N/A |
|---|---|
| Airport | Taiwan Taoyuan International Airport (RCTP) |
Arrival
| Time | 2026-04-23 08:11 |
|---|---|
| Airport | Shenzhen Bao'an International Airport (ZGSZ) |
| Time | Latitude | Longitude | Altitude | Speed | Heading |
|---|---|---|---|---|---|
| 2026-04-23 08:00 | 22.62081 | 114.30411 | 7030 ft | 247 kts | 261° |
| 2026-04-23 08:00 | 22.61825 | 114.28528 | 6741 ft | 245 kts | 261° |
| 2026-04-23 08:00 | 22.61575 | 114.26695 | 6581 ft | 244 kts | 260° |
| 2026-04-23 08:00 | 22.61321 | 114.24833 | 6421 ft | 244 kts | 260° |
| 2026-04-23 08:01 | 22.61067 | 114.22978 | 6254 ft | 244 kts | 260° |
| 2026-04-23 08:01 | 22.60816 | 114.21138 | 6071 ft | 238 kts | 260° |
| 2026-04-23 08:01 | 22.60573 | 114.19363 | 5907 ft | 232 kts | 261° |
| 2026-04-23 08:01 | 22.60338 | 114.17652 | 5744 ft | 226 kts | 261° |
| 2026-04-23 08:02 | 22.60109 | 114.15977 | 5580 ft | 220 kts | 261° |
| 2026-04-23 08:02 | 22.59887 | 114.14365 | 5425 ft | 215 kts | 261° |
| 2026-04-23 08:02 | 22.59664 | 114.12738 | 5268 ft | 209 kts | 261° |
| 2026-04-23 08:02 | 22.59450 | 114.11179 | 5125 ft | 206 kts | 261° |
| 2026-04-23 08:03 | 22.59002 | 114.09670 | 4971 ft | 205 kts | 245° |
| 2026-04-23 08:03 | 22.58345 | 114.08275 | 4820 ft | 205 kts | 244° |
| 2026-04-23 08:03 | 22.57672 | 114.06885 | 4669 ft | 205 kts | 244° |
| 2026-04-23 08:03 | 22.56997 | 114.05489 | 4525 ft | 204 kts | 244° |
| 2026-04-23 08:04 | 22.56344 | 114.04135 | 4371 ft | 196 kts | 244° |
| 2026-04-23 08:04 | 22.55720 | 114.02844 | 4227 ft | 188 kts | 244° |
| 2026-04-23 08:04 | 22.55122 | 114.01604 | 4096 ft | 179 kts | 244° |
| 2026-04-23 08:04 | 22.54537 | 114.00392 | 3970 ft | 178 kts | 244° |
| 2026-04-23 08:05 | 22.53961 | 113.99197 | 3846 ft | 178 kts | 245° |
| 2026-04-23 08:05 | 22.53373 | 113.97980 | 3717 ft | 179 kts | 245° |
| 2026-04-23 08:05 | 22.52810 | 113.96754 | 3585 ft | 180 kts | 247° |
| 2026-04-23 08:05 | 22.52269 | 113.95513 | 3455 ft | 180 kts | 247° |
| 2026-04-23 08:06 | 22.51713 | 113.94292 | 3325 ft | 180 kts | 245° |
| 2026-04-23 08:06 | 22.51121 | 113.93090 | 3196 ft | 179 kts | 244° |
| 2026-04-23 08:06 | 22.50527 | 113.91874 | 3062 ft | 173 kts | 245° |
| 2026-04-23 08:06 | 22.49997 | 113.90711 | 2823 ft | 170 kts | 255° |
| 2026-04-23 08:07 | 22.49998 | 113.89463 | 2621 ft | 162 kts | 288° |
| 2026-04-23 08:07 | 22.50535 | 113.88406 | 2415 ft | 158 kts | 315° |
| 2026-04-23 08:07 | 22.51483 | 113.87784 | 2226 ft | 153 kts | 333° |
| 2026-04-23 08:07 | 22.52462 | 113.87295 | 2070 ft | 159 kts | 332° |
| 2026-04-23 08:08 | 22.53438 | 113.86764 | 1877 ft | 150 kts | 332° |
| 2026-04-23 08:08 | 22.54351 | 113.86268 | 1717 ft | 141 kts | 332° |
| 2026-04-23 08:08 | 22.55251 | 113.85782 | 1545 ft | 141 kts | 332° |
| 2026-04-23 08:08 | 22.56142 | 113.85297 | 1376 ft | 141 kts | 332° |
| 2026-04-23 08:09 | 22.57034 | 113.84811 | 1194 ft | 140 kts | 332° |
| 2026-04-23 08:09 | 22.57926 | 113.84319 | 1022 ft | 140 kts | 332° |
| 2026-04-23 08:09 | 22.58821 | 113.83841 | 856 ft | 142 kts | 333° |
| 2026-04-23 08:09 | 22.59732 | 113.83351 | 684 ft | 143 kts | 332° |
| 2026-04-23 08:10 | 22.60639 | 113.82851 | 489 ft | 142 kts | 333° |
| 2026-04-23 08:10 | 22.61558 | 113.82355 | 280 ft | 142 kts | 333° |
| 2026-04-23 08:10 | 22.63344 | 113.81383 | 28 ft | 123 kts | 333° |
| 2026-04-23 08:11 | 22.63978 | 113.81036 | 28 ft | 79 kts | 333° |
| 2026-04-23 08:11 | 22.64355 | 113.80829 | 28 ft | 50 kts | 333° |
| 2026-04-23 08:11 | 22.64612 | 113.80679 | 28 ft | 33 kts | 322° |
| 2026-04-23 08:11 | 22.64734 | 113.80529 | 28 ft | 18 kts | 305° |
| 2026-04-23 08:12 | 22.64797 | 113.80426 | 28 ft | 14 kts | 304° |
| 2026-04-23 08:12 | 22.64846 | 113.80322 | 28 ft | 14 kts | 273° |
| 2026-04-23 08:12 | 22.64775 | 113.80274 | 28 ft | 13 kts | 162° |
| 2026-04-23 08:12 | 22.64683 | 113.80324 | 28 ft | 15 kts | 153° |
| 2026-04-23 08:13 | 22.64582 | 113.80379 | 28 ft | 16 kts | 153° |
| 2026-04-23 08:13 | 22.64474 | 113.80441 | 28 ft | 17 kts | 153° |
| 2026-04-23 08:13 | 22.64356 | 113.80504 | 28 ft | 19 kts | 153° |
| 2026-04-23 08:13 | 22.64228 | 113.80574 | 28 ft | 20 kts | 153° |
| 2026-04-23 08:14 | 22.64100 | 113.80644 | 28 ft | 19 kts | 153° |
| 2026-04-23 08:14 | 22.63975 | 113.80712 | 28 ft | 19 kts | 153° |
| 2026-04-23 08:14 | 22.63852 | 113.80781 | 28 ft | 19 kts | 153° |
| 2026-04-23 08:14 | 22.63731 | 113.80847 | 28 ft | 19 kts | 153° |
| 2026-04-23 08:15 | 22.63603 | 113.80917 | 28 ft | 20 kts | 153° |
| 2026-04-23 08:15 | 22.63470 | 113.80991 | 28 ft | 21 kts | 153° |
| 2026-04-23 08:15 | 22.63337 | 113.81063 | 28 ft | 19 kts | 152° |
| 2026-04-23 08:15 | 22.63216 | 113.81131 | 28 ft | 18 kts | 156° |
| 2026-04-23 08:16 | 22.63104 | 113.81190 | 28 ft | 17 kts | 153° |
| 2026-04-23 08:16 | 22.63008 | 113.81242 | 28 ft | 11 kts | 153° |
| 2026-04-23 08:16 | 22.62946 | 113.81266 | 28 ft | 7 kts | 193° |
| 2026-04-23 08:16 | 22.62917 | 113.81223 | 28 ft | 6 kts | 255° |
| 2026-04-23 08:17 | 22.62911 | 113.81179 | 28 ft | 4 kts | 262° |
| 2026-04-23 08:17 | 22.62910 | 113.81167 | 28 ft | 0 kts | 262° |